Time;durP1;ratioP1;P1;durP2;ratioP2;P2;SDS_P1;SDS_P2;PMS_P1;PMS_P2;Temp;Humidity;BMP_temperature;BMP_pressure;BME280_temperature;BME280_humidity;BME280_pressure;Samples;Min_cycle;Max_cycle;Signal;HPM_P1;HPM_P2
2023/05/29 00:00:13;;;;;;;3.70;2.90;;;;;;;18.04;98.67;99260.28;4962870;28;20259;-77
2023/05/29 00:02:44;;;;;;;4.97;3.07;;;;;;;17.64;100.00;99263.09;4964284;28;20203;-77
2023/05/29 00:05:12;;;;;;;7.10;3.22;;;;;;;17.49;100.00;99264.50;4963563;28;20203;-77
2023/05/29 00:07:42;;;;;;;4.10;2.77;;;;;;;17.37;100.00;99266.44;4966614;28;20249;-77
2023/05/29 00:10:12;;;;;;;5.53;3.03;;;;;;;17.32;100.00;99266.88;4973712;28;20190;-78
2023/05/29 00:12:40;;;;;;;3.43;2.57;;;;;;;17.16;100.00;99271.91;5007284;28;20208;-77
2023/05/29 00:15:12;;;;;;;5.03;2.67;;;;;;;17.26;100.00;99275.44;5007374;28;20201;-77
2023/05/29 00:17:42;;;;;;;5.87;3.13;;;;;;;17.08;100.00;99275.28;5008636;28;20202;-77
2023/05/29 00:20:13;;;;;;;5.80;3.13;;;;;;;17.24;100.00;99272.06;5011215;28;20229;-77
2023/05/29 00:22:42;;;;;;;5.30;2.97;;;;;;;17.24;100.00;99265.88;5003880;28;20253;-77
2023/05/29 00:25:10;;;;;;;5.83;2.90;;;;;;;17.21;100.00;99260.78;5012279;28;20232;-77
2023/05/29 00:27:38;;;;;;;5.47;2.90;;;;;;;17.22;100.00;99259.81;4999458;28;20199;-77
2023/05/29 00:30:08;;;;;;;6.23;2.93;;;;;;;17.15;100.00;99257.66;5009478;28;20206;-77
2023/05/29 00:32:37;;;;;;;8.40;3.00;;;;;;;17.02;100.00;99251.72;5014571;28;20203;-77
2023/05/29 00:35:07;;;;;;;4.77;3.10;;;;;;;17.10;100.00;99261.75;5009753;28;20194;-77
2023/05/29 00:37:35;;;;;;;4.37;2.73;;;;;;;17.09;100.00;99254.72;5009853;28;20302;-77
2023/05/29 00:40:05;;;;;;;5.40;3.30;;;;;;;17.08;100.00;99269.94;5013065;28;20225;-77
2023/05/29 00:42:33;;;;;;;5.97;3.13;;;;;;;17.00;100.00;99263.56;5008807;28;20195;-77
2023/05/29 00:45:01;;;;;;;5.93;3.20;;;;;;;16.89;100.00;99259.16;5010560;28;20206;-77
2023/05/29 00:47:30;;;;;;;5.23;3.27;;;;;;;17.06;100.00;99260.31;5009008;28;20202;-77
2023/05/29 00:50:02;;;;;;;6.17;3.40;;;;;;;16.75;100.00;99270.22;5011979;28;20221;-77
2023/05/29 00:52:31;;;;;;;3.97;2.97;;;;;;;16.57;100.00;99269.97;5015960;28;20198;-77
2023/05/29 00:55:01;;;;;;;5.40;3.10;;;;;;;16.58;100.00;99267.16;5010461;28;20281;-77
2023/05/29 00:57:29;;;;;;;6.57;3.30;;;;;;;16.29;100.00;99264.31;5007517;28;20225;-77
2023/05/29 00:59:59;;;;;;;4.73;3.10;;;;;;;16.21;100.00;99272.19;5002476;28;20194;-77
2023/05/29 01:02:30;;;;;;;4.73;2.87;;;;;;;16.16;100.00;99270.88;5007849;28;20279;-77
2023/05/29 01:05:00;;;;;;;4.67;3.13;;;;;;;15.98;100.00;99268.78;5008981;28;20198;-77
2023/05/29 01:07:31;;;;;;;4.13;2.90;;;;;;;15.84;100.00;99271.78;5004773;28;20285;-77
2023/05/29 01:10:00;;;;;;;5.37;3.03;;;;;;;15.68;100.00;99269.53;5005977;28;20229;-77
2023/05/29 01:12:38;;;;;;;4.20;3.03;;;;;;;15.55;100.00;99271.50;5010393;28;20195;-77
2023/05/29 01:15:19;;;;;;;5.27;3.30;;;;;;;15.71;100.00;99265.75;5013240;28;20206;-77
2023/05/29 01:18:01;;;;;;;5.63;3.30;;;;;;;15.66;100.00;99275.97;5011524;28;20198;-77
2023/05/29 01:20:41;;;;;;;5.03;3.00;;;;;;;15.51;100.00;99277.19;5006006;28;20645;-77
2023/05/29 01:23:41;;;;;;;6.27;3.30;;;;;;;15.34;100.00;99268.75;5006599;28;20198;-77
2023/05/29 01:26:25;;;;;;;5.67;3.70;;;;;;;15.41;100.00;99267.28;4974400;28;20265;-77
2023/05/29 01:29:00;;;;;;;5.77;3.17;;;;;;;15.39;100.00;99276.38;4985874;28;20223;-77
2023/05/29 01:31:29;;;;;;;6.47;3.47;;;;;;;15.36;100.00;99277.50;4995669;28;20242;-77
2023/05/29 01:34:01;;;;;;;4.00;3.30;;;;;;;15.41;100.00;99277.94;4992685;28;20214;-77
2023/05/29 01:36:32;;;;;;;5.47;3.20;;;;;;;15.28;100.00;99277.28;4989544;28;20203;-77
2023/05/29 01:39:01;;;;;;;5.70;3.37;;;;;;;15.30;100.00;99275.31;4987765;28;20191;-77
2023/05/29 01:41:30;;;;;;;5.33;3.40;;;;;;;15.28;100.00;99276.41;4990526;28;20203;-77
2023/05/29 01:44:01;;;;;;;6.37;3.43;;;;;;;15.25;100.00;99277.53;4990280;28;20187;-77
2023/05/29 01:46:29;;;;;;;6.57;3.33;;;;;;;15.24;100.00;99285.63;4992738;28;20647;-77
2023/05/29 01:48:58;;;;;;;4.90;3.40;;;;;;;15.32;100.00;99292.03;4989061;28;20226;-77
2023/05/29 01:51:26;;;;;;;8.60;3.50;;;;;;;15.38;100.00;99280.03;4985099;28;20218;-78
2023/05/29 01:53:55;;;;;;;8.03;3.50;;;;;;;15.26;100.00;99276.56;4987402;28;20254;-77
2023/05/29 01:56:23;;;;;;;4.27;3.57;;;;;;;14.95;100.00;99272.81;4986997;28;20278;-77
2023/05/29 01:58:52;;;;;;;5.00;3.40;;;;;;;14.82;100.00;99272.13;4988587;28;20222;-77
2023/05/29 02:01:22;;;;;;;4.93;3.47;;;;;;;14.84;100.00;99270.16;4985970;28;20373;-77
2023/05/29 02:03:52;;;;;;;4.90;3.60;;;;;;;14.72;100.00;99271.16;4986924;28;20203;-77
2023/05/29 02:06:20;;;;;;;6.00;3.77;;;;;;;14.80;100.00;99271.41;4993584;28;20259;-77
2023/05/29 02:08:49;;;;;;;5.87;3.77;;;;;;;14.39;100.00;99264.81;4988748;28;20226;-77
2023/05/29 02:11:17;;;;;;;7.53;3.70;;;;;;;14.44;100.00;99265.28;4992153;28;20203;-77
2023/05/29 02:13:46;;;;;;;6.10;3.53;;;;;;;14.37;100.00;99266.72;4992371;28;20693;-77
2023/05/29 02:16:14;;;;;;;6.20;3.50;;;;;;;14.09;100.00;99270.72;4994873;28;20187;-77
2023/05/29 02:18:44;;;;;;;6.83;3.90;;;;;;;14.08;100.00;99263.66;4988541;28;20203;-77
2023/05/29 02:21:12;;;;;;;7.27;3.70;;;;;;;14.19;100.00;99262.84;4990777;28;20250;-77
2023/05/29 02:23:41;;;;;;;6.17;3.77;;;;;;;14.32;100.00;99260.94;4984235;28;20222;-77
2023/05/29 02:26:10;;;;;;;8.23;3.97;;;;;;;14.18;100.00;99263.78;5007310;28;20254;-77
2023/05/29 02:28:38;;;;;;;8.73;4.00;;;;;;;14.37;100.00;99272.06;5006181;28;20194;-77
2023/05/29 02:31:06;;;;;;;5.93;3.63;;;;;;;14.26;100.00;99269.38;5006914;28;20194;-77
2023/05/29 02:33:35;;;;;;;5.63;4.03;;;;;;;13.98;100.00;99273.31;5011202;28;20204;-77
2023/05/29 02:36:11;;;;;;;8.40;4.20;;;;;;;13.92;100.00;99271.13;5003506;28;20202;-77
2023/05/29 02:38:40;;;;;;;8.83;4.40;;;;;;;13.97;100.00;99276.94;5007837;28;20193;-77
2023/05/29 02:41:08;;;;;;;6.93;4.33;;;;;;;14.09;100.00;99281.34;5009970;28;20198;-77
2023/05/29 02:43:37;;;;;;;9.00;4.73;;;;;;;13.91;100.00;99283.59;5007189;28;20209;-77
2023/05/29 02:46:06;;;;;;;8.17;4.20;;;;;;;13.97;100.00;99283.13;5013823;28;20198;-77
2023/05/29 02:48:34;;;;;;;5.93;4.40;;;;;;;14.09;100.00;99285.81;5005065;28;20202;-77
2023/05/29 02:51:04;;;;;;;7.33;4.50;;;;;;;13.93;100.00;99278.16;5002064;28;20221;-77
2023/05/29 02:53:32;;;;;;;8.33;4.47;;;;;;;14.13;100.00;99287.28;5006315;28;20202;-76
2023/05/29 02:56:01;;;;;;;6.50;4.27;;;;;;;14.21;100.00;99277.75;5006476;28;20209;-77
2023/05/29 02:58:29;;;;;;;7.93;4.00;;;;;;;14.12;100.00;99286.44;5005171;28;20209;-77
2023/05/29 03:00:58;;;;;;;8.47;4.70;;;;;;;14.13;100.00;99282.81;5003619;28;20205;-77
2023/05/29 03:03:28;;;;;;;7.43;4.57;;;;;;;14.13;100.00;99288.13;4998321;28;20201;-77
2023/05/29 03:05:56;;;;;;;9.83;4.60;;;;;;;13.86;100.00;99288.41;5006934;28;20268;-77
2023/05/29 03:08:27;;;;;;;8.07;4.83;;;;;;;14.02;100.00;99283.63;5010689;28;20221;-76
2023/05/29 03:10:56;;;;;;;8.10;4.60;;;;;;;14.13;100.00;99293.47;5005387;28;20226;-76
2023/05/29 03:13:25;;;;;;;8.43;4.60;;;;;;;14.21;100.00;99291.06;5008009;28;20209;-76
2023/05/29 03:15:56;;;;;;;8.00;4.50;;;;;;;14.16;100.00;99295.03;5000852;28;20205;-77
2023/05/29 03:18:25;;;;;;;7.40;4.53;;;;;;;14.22;100.00;99295.44;5004379;28;20313;-76
2023/05/29 03:20:53;;;;;;;7.93;4.90;;;;;;;13.92;100.00;99292.44;5007979;28;20683;-76
2023/05/29 03:23:22;;;;;;;8.87;4.30;;;;;;;13.85;100.00;99293.84;5006349;28;20226;-76
2023/05/29 03:25:55;;;;;;;9.27;4.60;;;;;;;13.97;100.00;99296.44;5005402;28;20230;-76
2023/05/29 03:28:24;;;;;;;10.23;5.23;;;;;;;13.94;100.00;99304.66;5010281;28;20268;-76
2023/05/29 03:30:52;;;;;;;8.27;5.33;;;;;;;13.91;100.00;99299.59;5008449;28;20245;-76
2023/05/29 03:33:21;;;;;;;8.63;5.00;;;;;;;14.16;100.00;99309.22;5004018;28;20281;-76
2023/05/29 03:35:50;;;;;;;9.63;4.93;;;;;;;14.13;100.00;99311.25;5006119;28;20212;-76
2023/05/29 03:38:18;;;;;;;8.93;5.00;;;;;;;13.96;100.00;99316.03;5009039;28;20285;-76
2023/05/29 03:40:46;;;;;;;8.77;4.73;;;;;;;13.87;100.00;99315.88;5007546;28;20198;-76
2023/05/29 03:43:17;;;;;;;10.27;5.03;;;;;;;14.17;100.00;99318.88;5005876;28;20198;-76
2023/05/29 03:45:48;;;;;;;7.13;4.47;;;;;;;14.35;100.00;99323.78;5008322;28;20193;-76
2023/05/29 03:48:17;;;;;;;7.23;4.63;;;;;;;14.27;100.00;99327.88;5009825;28;20202;-76
2023/05/29 03:50:45;;;;;;;9.00;5.07;;;;;;;14.26;100.00;99323.53;5004805;28;20222;-76
2023/05/29 03:53:14;;;;;;;11.13;5.27;;;;;;;14.22;100.00;99326.56;5009891;28;20191;-76
2023/05/29 03:55:43;;;;;;;8.77;4.70;;;;;;;14.43;100.00;99330.22;5004318;28;20645;-77
2023/05/29 03:58:12;;;;;;;8.97;5.40;;;;;;;14.21;100.00;99335.50;5010189;28;20212;-77
2023/05/29 04:00:41;;;;;;;10.20;5.00;;;;;;;14.16;100.00;99338.50;5001083;28;20190;-77
2023/05/29 04:03:11;;;;;;;7.93;5.07;;;;;;;14.14;100.00;99345.78;5012840;28;20221;-76
2023/05/29 04:05:39;;;;;;;8.70;4.83;;;;;;;14.19;100.00;99350.78;5008666;28;20203;-76
2023/05/29 04:08:08;;;;;;;8.57;4.87;;;;;;;14.23;100.00;99355.72;5008577;28;20194;-76
2023/05/29 04:10:43;;;;;;;9.77;4.70;;;;;;;14.04;100.00;99352.75;5012943;28;20296;-77
2023/05/29 04:13:11;;;;;;;10.97;5.20;;;;;;;14.11;100.00;99353.16;5013685;28;20197;-77
2023/05/29 04:15:42;;;;;;;9.83;4.60;;;;;;;13.95;100.00;99364.09;5014025;28;20229;-76
2023/05/29 04:18:10;;;;;;;12.40;5.20;;;;;;;13.98;100.00;99366.53;4971800;28;20215;-77
2023/05/29 04:20:38;;;;;;;10.00;4.60;;;;;;;14.02;100.00;99365.34;4967641;28;20196;-77
2023/05/29 04:23:07;;;;;;;9.47;5.10;;;;;;;14.02;100.00;99374.19;4968830;28;20204;-76
2023/05/29 04:25:37;;;;;;;8.43;4.83;;;;;;;14.05;100.00;99381.09;4965551;28;20327;-77
2023/05/29 04:28:05;;;;;;;8.17;4.87;;;;;;;14.15;100.00;99382.09;4972416;28;20235;-76
2023/05/29 04:30:34;;;;;;;10.83;5.47;;;;;;;14.05;100.00;99378.44;4966271;28;20220;-76
2023/05/29 04:33:04;;;;;;;7.77;4.80;;;;;;;14.26;100.00;99383.94;4972015;28;20211;-78
2023/05/29 04:35:32;;;;;;;9.60;5.27;;;;;;;14.20;100.00;99385.28;4977358;28;20225;-76
2023/05/29 04:38:01;;;;;;;9.70;5.10;;;;;;;14.07;100.00;99391.63;5009364;28;20233;-76
2023/05/29 04:40:31;;;;;;;8.00;5.33;;;;;;;14.01;100.00;99399.13;5005622;28;20285;-77
2023/05/29 04:43:01;;;;;;;10.03;5.23;;;;;;;14.15;100.00;99392.75;5013201;28;20191;-76
2023/05/29 04:45:31;;;;;;;10.23;5.30;;;;;;;14.29;100.00;99392.59;5010749;28;20202;-76
2023/05/29 04:48:00;;;;;;;12.20;5.10;;;;;;;14.29;100.00;99397.06;5007851;28;20206;-76
2023/05/29 04:50:30;;;;;;;11.20;5.20;;;;;;;14.45;100.00;99397.63;5013520;28;20728;-76
2023/05/29 04:52:59;;;;;;;8.80;4.73;;;;;;;14.37;100.00;99399.13;5013567;28;20213;-76
2023/05/29 04:55:27;;;;;;;9.77;5.87;;;;;;;14.33;100.00;99399.38;5005814;28;20199;-76
2023/05/29 04:57:55;;;;;;;7.83;5.00;;;;;;;14.33;100.00;99401.19;5012716;28;20229;-76
2023/05/29 05:00:25;;;;;;;10.33;4.93;;;;;;;14.38;100.00;99406.16;5006256;28;20675;-77
2023/05/29 05:02:53;;;;;;;9.47;5.20;;;;;;;14.32;100.00;99403.00;5013363;28;20202;-76
2023/05/29 05:05:22;;;;;;;8.83;5.10;;;;;;;14.44;100.00;99398.56;5008971;28;20568;-76
2023/05/29 05:07:51;;;;;;;8.17;5.00;;;;;;;14.38;100.00;99403.47;5015660;28;20201;-76
2023/05/29 05:10:20;;;;;;;12.13;5.27;;;;;;;14.64;100.00;99407.72;5004862;28;20202;-76
2023/05/29 05:12:48;;;;;;;9.27;5.27;;;;;;;14.78;100.00;99412.00;5008608;28;20205;-76
2023/05/29 05:15:16;;;;;;;11.37;5.53;;;;;;;14.65;100.00;99405.91;5010929;28;20194;-76
2023/05/29 05:17:46;;;;;;;9.27;5.20;;;;;;;14.69;100.00;99410.06;5012320;28;20269;-76
2023/05/29 05:20:14;;;;;;;9.20;5.33;;;;;;;14.66;100.00;99399.59;5011611;28;20198;-76
2023/05/29 05:22:43;;;;;;;10.13;5.23;;;;;;;14.69;100.00;99396.72;5005329;28;20322;-76
2023/05/29 05:25:13;;;;;;;11.50;5.10;;;;;;;14.88;100.00;99383.66;5007163;28;20245;-77
2023/05/29 05:27:42;;;;;;;11.10;5.33;;;;;;;14.80;100.00;99389.59;5012623;28;20649;-76
2023/05/29 05:30:11;;;;;;;8.83;4.67;;;;;;;14.90;100.00;99384.38;5012566;28;20212;-77
2023/05/29 05:32:40;;;;;;;10.77;5.47;;;;;;;15.01;100.00;99387.06;5007820;28;20233;-76
2023/05/29 05:35:11;;;;;;;10.40;4.87;;;;;;;15.06;100.00;99386.69;5007177;28;20203;-76
2023/05/29 05:37:39;;;;;;;9.43;5.13;;;;;;;15.22;100.00;99389.84;5012722;28;20314;-76
2023/05/29 05:40:09;;;;;;;10.13;5.13;;;;;;;15.02;100.00;99388.75;5010832;28;20649;-76
2023/05/29 05:42:39;;;;;;;8.10;4.50;;;;;;;15.14;100.00;99389.59;5010542;28;20203;-76
2023/05/29 05:45:08;;;;;;;11.07;4.90;;;;;;;15.24;100.00;99401.22;5011156;28;20689;-76
2023/05/29 05:47:37;;;;;;;11.77;5.33;;;;;;;15.24;100.00;99400.38;5011854;28;20207;-76
2023/05/29 05:50:07;;;;;;;9.00;4.93;;;;;;;15.26;100.00;99401.97;5005816;28;20229;-76
2023/05/29 05:52:35;;;;;;;9.67;4.80;;;;;;;15.34;100.00;99404.88;5003471;28;20226;-77
2023/05/29 05:55:04;;;;;;;8.50;4.80;;;;;;;15.45;100.00;99399.53;5010657;28;20260;-77
2023/05/29 05:57:33;;;;;;;9.67;4.80;;;;;;;15.48;100.00;99409.13;5014572;28;20206;-77
2023/05/29 06:00:06;;;;;;;8.73;4.27;;;;;;;15.74;100.00;99410.56;5014635;28;20199;-77
2023/05/29 06:02:34;;;;;;;9.50;4.90;;;;;;;15.78;100.00;99412.97;5012403;28;20194;-77
2023/05/29 06:05:03;;;;;;;8.90;5.07;;;;;;;15.70;100.00;99408.25;5008942;28;20186;-77
2023/05/29 06:07:31;;;;;;;9.80;4.60;;;;;;;15.90;100.00;99412.81;5005003;28;20207;-77
2023/05/29 06:10:00;;;;;;;9.50;5.13;;;;;;;15.79;100.00;99406.66;5011593;28;20198;-77
2023/05/29 06:12:31;;;;;;;9.50;4.93;;;;;;;15.86;100.00;99414.06;5006953;28;20222;-76
2023/05/29 06:14:59;;;;;;;6.50;4.53;;;;;;;16.02;100.00;99414.50;5011856;28;20198;-76
2023/05/29 06:17:29;;;;;;;9.20;4.80;;;;;;;16.05;100.00;99416.06;5002555;28;20198;-77
2023/05/29 06:19:58;;;;;;;10.77;4.83;;;;;;;16.13;100.00;99416.28;5006335;28;20198;-77
2023/05/29 06:22:26;;;;;;;8.33;4.30;;;;;;;16.20;100.00;99416.59;5005923;28;20199;-77
2023/05/29 06:24:54;;;;;;;12.40;4.57;;;;;;;16.11;100.00;99426.22;5002702;28;20762;-77
2023/05/29 06:27:25;;;;;;;7.23;4.57;;;;;;;16.18;100.00;99423.91;5013822;28;20213;-77
2023/05/29 06:29:53;;;;;;;10.93;4.77;;;;;;;16.36;100.00;99421.53;5008419;28;20191;-77
2023/05/29 06:32:21;;;;;;;11.93;5.07;;;;;;;16.44;100.00;99425.28;5005193;28;20226;-77
2023/05/29 06:34:51;;;;;;;10.10;4.90;;;;;;;16.60;100.00;99436.38;5004186;28;20282;-77
2023/05/29 06:37:19;;;;;;;8.43;4.33;;;;;;;16.81;100.00;99440.91;5011035;28;20206;-77
2023/05/29 06:39:48;;;;;;;9.83;4.93;;;;;;;16.58;100.00;99440.13;5003951;28;20672;-77
2023/05/29 06:42:16;;;;;;;9.43;4.70;;;;;;;16.72;100.00;99436.34;5011246;28;20298;-77
2023/05/29 06:44:46;;;;;;;8.40;4.67;;;;;;;16.75;100.00;99441.44;5008636;28;20198;-77
2023/05/29 06:47:15;;;;;;;9.50;4.37;;;;;;;16.65;100.00;99445.81;5008760;28;20277;-77
2023/05/29 06:49:43;;;;;;;7.07;4.30;;;;;;;16.76;100.00;99451.16;5006425;28;20277;-77
2023/05/29 06:52:13;;;;;;;8.33;4.40;;;;;;;16.87;100.00;99448.41;5009369;28;20218;-77
2023/05/29 06:54:42;;;;;;;10.70;4.73;;;;;;;16.88;100.00;99447.41;5001071;28;20302;-77
2023/05/29 06:57:10;;;;;;;13.73;4.67;;;;;;;16.96;100.00;99454.78;5013862;28;20198;-77
2023/05/29 06:59:39;;;;;;;11.83;4.77;;;;;;;17.05;100.00;99454.00;5011206;28;20201;-77
2023/05/29 07:02:08;;;;;;;10.70;4.93;;;;;;;17.14;100.00;99456.75;5010789;28;20229;-77
2023/05/29 07:04:37;;;;;;;6.53;3.70;;;;;;;17.06;100.00;99458.38;5008556;28;20213;-77
2023/05/29 07:07:06;;;;;;;9.43;4.63;;;;;;;17.06;100.00;99455.69;5004815;28;20226;-77
2023/05/29 07:09:35;;;;;;;7.90;4.80;;;;;;;17.34;100.00;99464.88;5006236;28;20213;-76
2023/05/29 07:12:06;;;;;;;9.90;4.43;;;;;;;17.32;100.00;99454.31;5010754;28;20225;-77
2023/05/29 07:14:34;;;;;;;10.93;4.40;;;;;;;17.38;100.00;99459.13;5013624;28;20282;-77
2023/05/29 07:17:03;;;;;;;7.07;4.10;;;;;;;17.60;100.00;99459.91;4932384;29;20208;-78
2023/05/29 07:19:32;;;;;;;9.87;4.60;;;;;;;17.45;100.00;99457.59;4929819;29;20684;-78
2023/05/29 07:22:00;;;;;;;9.67;5.03;;;;;;;17.43;100.00;99456.03;4928975;29;20309;-77
2023/05/29 07:24:29;;;;;;;8.90;4.50;;;;;;;17.66;100.00;99452.19;4931053;29;20212;-77
2023/05/29 07:26:59;;;;;;;9.43;3.93;;;;;;;17.86;100.00;99449.59;4929030;29;20221;-78
2023/05/29 07:29:27;;;;;;;10.70;4.53;;;;;;;17.73;100.00;99448.00;4928158;29;20284;-77
2023/05/29 07:31:55;;;;;;;9.87;4.20;;;;;;;17.73;100.00;99453.34;4929948;29;20688;-77
2023/05/29 07:34:23;;;;;;;6.77;4.27;;;;;;;17.87;100.00;99456.66;4928887;29;20205;-77
2023/05/29 07:37:00;;;;;;;9.03;4.37;;;;;;;18.05;100.00;99452.34;4933577;29;20201;-78
2023/05/29 07:39:29;;;;;;;7.87;4.53;;;;;;;18.12;100.00;99449.91;4933597;29;20236;-77
2023/05/29 07:41:59;;;;;;;8.53;4.30;;;;;;;18.21;100.00;99462.50;4974860;28;20217;-77
2023/05/29 07:44:27;;;;;;;7.83;4.50;;;;;;;18.35;100.00;99454.06;5005511;28;20203;-77
2023/05/29 07:46:56;;;;;;;9.60;4.53;;;;;;;18.46;100.00;99459.28;5013089;28;20289;-78
2023/05/29 07:49:24;;;;;;;10.30;4.53;;;;;;;18.63;100.00;99451.53;5005001;28;20194;-77
2023/05/29 07:51:53;;;;;;;8.87;4.17;;;;;;;18.43;100.00;99448.84;5008272;28;20198;-77
2023/05/29 07:54:22;;;;;;;7.37;4.20;;;;;;;18.42;100.00;99454.31;5005680;28;20202;-77
2023/05/29 07:56:50;;;;;;;7.83;4.30;;;;;;;18.49;100.00;99453.63;5003050;28;20202;-77
2023/05/29 07:59:21;;;;;;;7.57;3.97;;;;;;;18.80;100.00;99448.13;5006804;28;20202;-77
2023/05/29 08:01:49;;;;;;;11.73;4.33;;;;;;;18.89;100.00;99449.94;5006071;28;20203;-77
2023/05/29 08:04:17;;;;;;;8.10;5.10;;;;;;;18.91;100.00;99445.28;5006385;28;20661;-78
2023/05/29 08:06:46;;;;;;;7.50;4.50;;;;;;;19.16;100.00;99449.19;5002657;28;20208;-78
2023/05/29 08:09:14;;;;;;;9.10;4.90;;;;;;;19.18;100.00;99449.88;5002311;28;20201;-77
2023/05/29 08:11:45;;;;;;;6.50;4.13;;;;;;;19.52;100.00;99452.88;5008785;28;20198;-78
2023/05/29 08:14:13;;;;;;;11.50;4.07;;;;;;;19.48;100.00;99456.84;5009806;28;20677;-78
2023/05/29 08:16:42;;;;;;;6.07;4.00;;;;;;;19.68;100.00;99460.31;5005353;28;20209;-77
2023/05/29 08:19:11;;;;;;;7.83;4.23;;;;;;;19.70;100.00;99461.03;5005043;28;20199;-78
2023/05/29 08:21:40;;;;;;;7.87;4.03;;;;;;;19.92;100.00;99465.16;5007886;28;20203;-78
2023/05/29 08:24:09;;;;;;;8.52;5.10;;;;;;;19.89;100.00;99465.47;5008324;28;20699;-78
2023/05/29 08:26:37;;;;;;;6.30;4.03;;;;;;;20.05;100.00;99462.09;5012518;28;20261;-78
2023/05/29 08:29:06;;;;;;;6.38;3.90;;;;;;;20.16;100.00;99465.41;5012698;28;20206;-78
2023/05/29 08:31:36;;;;;;;6.90;3.90;;;;;;;20.12;100.00;99458.66;5007499;28;20212;-78
2023/05/29 08:34:06;;;;;;;6.80;3.80;;;;;;;20.34;100.00;99461.91;5005009;28;20269;-78
2023/05/29 08:36:35;;;;;;;7.78;4.18;;;;;;;20.38;100.00;99464.16;5008142;28;20199;-78
2023/05/29 08:39:03;;;;;;;7.82;4.35;;;;;;;20.56;100.00;99462.34;5005996;28;20692;-77
2023/05/29 08:41:42;;;;;;;7.88;3.97;;;;;;;20.82;100.00;99461.53;5003290;28;20302;-78
2023/05/29 08:44:15;;;;;;;8.20;4.22;;;;;;;21.01;100.00;99458.66;5004519;28;20197;-78
2023/05/29 08:46:45;;;;;;;9.98;4.47;;;;;;;21.00;100.00;99456.97;5009562;28;20198;-78
2023/05/29 08:49:20;;;;;;;6.68;4.10;;;;;;;20.68;100.00;99462.09;5004355;28;20209;-77
2023/05/29 08:51:51;;;;;;;8.88;3.88;;;;;;;20.74;99.80;99454.22;5008959;28;20198;-78
2023/05/29 08:54:20;;;;;;;7.43;3.78;;;;;;;20.93;95.02;99460.44;5010450;28;20210;-78
2023/05/29 08:56:48;;;;;;;7.50;3.92;;;;;;;21.12;93.52;99449.47;5013585;28;20197;-77
2023/05/29 08:59:17;;;;;;;8.93;4.35;;;;;;;21.33;92.65;99457.22;5016094;28;20191;-78
2023/05/29 09:01:46;;;;;;;7.20;3.63;;;;;;;21.45;94.61;99458.63;5011660;28;20202;-78
2023/05/29 09:04:16;;;;;;;11.63;3.97;;;;;;;21.58;93.57;99459.03;5009019;28;20680;-78
2023/05/29 09:06:48;;;;;;;7.28;3.97;;;;;;;21.75;91.23;99454.56;5009109;28;20226;-78
2023/05/29 09:09:17;;;;;;;7.50;4.10;;;;;;;21.88;94.14;99446.84;5013662;28;20237;-78
2023/05/29 09:11:46;;;;;;;8.25;4.05;;;;;;;21.60;95.68;99450.78;5008080;28;20253;-78
2023/05/29 09:14:39;;;;;;;6.03;3.80;;;;;;;21.78;92.59;99443.44;5008013;28;20220;-78
2023/05/29 09:17:08;;;;;;;5.68;3.67;;;;;;;21.74;87.32;99454.72;5008044;28;20237;-78
2023/05/29 09:19:41;;;;;;;7.13;4.07;;;;;;;21.82;85.99;99446.69;5003787;28;20207;-78
2023/05/29 09:22:14;;;;;;;8.32;4.22;;;;;;;22.17;81.37;99441.06;5015316;28;20202;-78
2023/05/29 09:24:46;;;;;;;8.95;4.28;;;;;;;22.13;81.41;99445.13;5015407;28;20202;-78
2023/05/29 09:27:15;;;;;;;8.90;3.53;;;;;;;22.42;85.43;99446.53;5010564;28;20190;-78
2023/05/29 09:29:45;;;;;;;8.93;3.85;;;;;;;22.53;89.36;99438.09;5007966;28;20225;-78
2023/05/29 09:32:17;;;;;;;9.23;4.03;;;;;;;22.57;79.04;99447.53;5015226;28;20209;-78
2023/05/29 09:34:48;;;;;;;6.20;3.65;;;;;;;22.44;82.18;99439.09;5013852;28;20218;-78
2023/05/29 09:37:21;;;;;;;10.32;4.10;;;;;;;22.62;79.94;99442.47;5006432;28;20257;-78
2023/05/29 09:39:51;;;;;;;5.70;3.60;;;;;;;22.91;69.89;99443.84;5012466;28;20217;-78
2023/05/29 09:42:19;;;;;;;6.07;3.58;;;;;;;22.79;70.14;99436.06;4964449;28;20210;-78
2023/05/29 09:44:53;;;;;;;7.53;3.70;;;;;;;23.16;71.78;99447.34;5012433;28;20281;-78
2023/05/29 09:47:22;;;;;;;7.72;3.63;;;;;;;23.47;66.89;99439.34;5009657;28;20281;-78
2023/05/29 09:49:53;;;;;;;5.70;3.70;;;;;;;23.66;66.69;99436.28;5008518;28;20241;-79
2023/05/29 09:52:22;;;;;;;6.82;4.00;;;;;;;23.86;65.17;99439.41;5007125;28;20205;-78
2023/05/29 09:54:52;;;;;;;4.45;3.40;;;;;;;23.70;64.01;99448.41;5007525;28;20226;-78
2023/05/29 09:57:23;;;;;;;7.13;3.67;;;;;;;23.55;65.28;99442.03;5012326;28;20205;-78
2023/05/29 09:59:53;;;;;;;6.25;3.47;;;;;;;24.12;66.28;99442.63;5008736;28;20202;-78
2023/05/29 10:02:24;;;;;;;7.07;3.50;;;;;;;23.99;69.18;99439.66;5011929;28;20236;-78
2023/05/29 10:04:54;;;;;;;7.78;3.70;;;;;;;23.76;69.23;99442.31;5008440;28;20221;-78
2023/05/29 10:07:28;;;;;;;6.03;3.70;;;;;;;23.59;71.25;99441.53;5007570;28;20233;-78
2023/05/29 10:10:01;;;;;;;6.60;3.83;;;;;;;24.06;69.28;99443.34;5009324;28;20253;-78
2023/05/29 10:12:32;;;;;;;6.40;3.50;;;;;;;24.25;68.21;99444.78;5011946;28;20197;-78
2023/05/29 10:15:02;;;;;;;6.45;3.90;;;;;;;24.24;64.47;99443.94;5007695;28;20226;-78
2023/05/29 10:17:35;;;;;;;5.25;3.75;;;;;;;24.16;61.91;99438.56;5009480;28;20202;-78
2023/05/29 10:20:15;;;;;;;7.68;3.65;;;;;;;24.58;61.02;99439.97;5006337;28;20256;-78
2023/05/29 10:22:47;;;;;;;8.57;3.90;;;;;;;24.77;60.27;99447.63;5008331;28;20190;-78
2023/05/29 10:25:20;;;;;;;6.43;3.72;;;;;;;24.95;61.98;99444.59;5014257;28;20226;-78
2023/05/29 10:27:49;;;;;;;6.97;3.53;;;;;;;24.61;63.16;99439.63;4970730;28;20188;-78
2023/05/29 10:30:28;;;;;;;5.38;4.30;;;;;;;24.23;63.62;99449.53;4968457;28;20223;-78
2023/05/29 10:33:07;;;;;;;6.28;3.92;;;;;;;24.82;65.10;99447.09;4965832;28;20195;-78
2023/05/29 10:35:45;;;;;;;7.70;4.25;;;;;;;24.54;61.92;99444.94;4914318;29;20215;-78
2023/05/29 10:38:16;;;;;;;9.43;3.92;;;;;;;24.65;62.65;99443.66;4912111;29;20212;-77
2023/05/29 10:40:45;;;;;;;10.15;5.47;;;;;;;24.46;64.01;99436.88;4910335;29;20289;-78
2023/05/29 10:43:32;;;;;;;7.75;3.95;;;;;;;24.36;62.21;99447.09;4911768;29;20196;-78
2023/05/29 10:46:00;;;;;;;7.50;4.38;;;;;;;24.78;53.17;99440.31;4930939;29;20283;-77
2023/05/29 10:48:43;;;;;;;6.80;3.58;;;;;;;25.18;55.43;99435.56;4947405;29;20228;-78
2023/05/29 10:51:31;;;;;;;6.95;3.92;;;;;;;25.61;54.05;99434.75;4946735;29;20200;-78
2023/05/29 10:53:59;;;;;;;9.63;4.50;;;;;;;25.41;55.62;99436.34;4984167;28;20221;-78
2023/05/29 10:56:30;;;;;;;7.57;3.53;;;;;;;25.75;56.67;99432.25;5006681;28;20381;-78
2023/05/29 10:59:01;;;;;;;6.65;3.80;;;;;;;25.71;55.34;99431.78;5004486;28;20206;-78
2023/05/29 11:01:31;;;;;;;8.45;4.20;;;;;;;25.39;55.72;99428.41;5009860;28;20261;-77
2023/05/29 11:04:31;;;;;;;6.75;3.58;;;;;;;25.47;53.81;99429.31;5007314;28;20194;-79
2023/05/29 11:07:06;;;;;;;5.68;3.92;;;;;;;25.72;54.08;99429.91;5006918;28;20207;-78
2023/05/29 11:09:36;;;;;;;6.53;3.60;;;;;;;26.24;50.28;99429.69;5008157;28;20194;-78
2023/05/29 11:12:24;;;;;;;5.70;3.72;;;;;;;26.86;48.16;99428.25;5008453;28;20194;-78
2023/05/29 11:15:02;;;;;;;6.70;3.42;;;;;;;27.23;49.18;99424.38;5010498;28;20222;-78
2023/05/29 11:17:43;;;;;;;8.02;3.67;;;;;;;26.40;47.95;99421.34;5013321;28;20226;-78
2023/05/29 11:20:21;;;;;;;5.50;3.38;;;;;;;25.64;47.64;99428.94;5006773;28;20246;-78
2023/05/29 11:23:02;;;;;;;5.85;3.42;;;;;;;25.84;49.52;99428.41;5010379;28;20205;-78
2023/05/29 11:25:34;;;;;;;6.22;3.53;;;;;;;26.12;48.53;99423.09;5009340;28;20268;-78
2023/05/29 11:28:08;;;;;;;5.43;3.20;;;;;;;26.01;45.18;99429.03;5013218;28;20214;-78
2023/05/29 11:30:46;;;;;;;6.00;3.47;;;;;;;26.31;44.07;99416.19;5013463;28;20198;-78
2023/05/29 11:33:24;;;;;;;5.40;3.70;;;;;;;26.34;43.63;99419.34;5007733;28;20268;-78
2023/05/29 11:36:06;;;;;;;4.95;3.45;;;;;;;26.50;43.45;99421.84;5009846;28;20254;-78
2023/05/29 11:38:38;;;;;;;6.00;3.22;;;;;;;26.23;42.71;99417.16;5007921;28;20681;-78
2023/05/29 11:41:07;;;;;;;7.55;3.38;;;;;;;26.75;41.34;99413.31;5008111;28;20199;-78